createdAt,value
2022-08-27T00:01:33.404Z,101410.00
2022-08-27T00:04:06.530Z,101408.00
2022-08-27T00:06:39.528Z,101424.00
2022-08-27T00:09:13.062Z,101414.00
2022-08-27T00:11:47.039Z,101418.00
2022-08-27T00:14:19.797Z,101413.00
2022-08-27T00:16:52.391Z,101408.00
2022-08-27T00:19:25.385Z,101417.00
2022-08-27T00:21:58.077Z,101401.00
2022-08-27T00:24:30.910Z,101409.00
2022-08-27T00:27:07.734Z,101396.00
2022-08-27T00:29:41.862Z,101401.00
2022-08-27T00:32:14.655Z,101391.00
2022-08-27T00:34:47.610Z,101402.00
2022-08-27T00:37:20.552Z,101394.00
2022-08-27T00:40:00.305Z,101392.00
2022-08-27T00:42:27.413Z,101407.00
2022-08-27T00:45:01.470Z,101396.00
2022-08-27T00:47:35.507Z,101387.00
2022-08-27T00:50:10.256Z,101389.00
2022-08-27T00:52:50.728Z,101390.00
2022-08-27T00:55:28.691Z,101383.00
2022-08-27T00:58:22.184Z,101389.00
2022-08-27T01:00:55.503Z,101383.00
2022-08-27T01:03:28.752Z,101385.00
2022-08-27T01:06:08.211Z,101387.00
2022-08-27T01:08:45.266Z,101403.00
2022-08-27T01:11:18.859Z,101400.00
2022-08-27T01:14:00.339Z,101401.00
2022-08-27T01:16:33.538Z,101400.00
2022-08-27T01:19:08.124Z,101395.00
2022-08-27T01:21:55.055Z,101390.00
2022-08-27T01:24:39.038Z,101388.00
2022-08-27T01:27:14.058Z,101392.00
2022-08-27T01:29:47.429Z,101388.00
2022-08-27T01:32:22.241Z,101382.00
2022-08-27T01:34:55.798Z,101379.00
2022-08-27T01:37:29.864Z,101386.00
2022-08-27T01:40:03.858Z,101380.00
2022-08-27T01:42:42.069Z,101384.00
2022-08-27T01:45:34.517Z,101374.00
2022-08-27T01:48:17.832Z,101371.00
2022-08-27T01:50:44.241Z,101375.00
2022-08-27T01:53:22.104Z,101378.00
2022-08-27T01:55:56.300Z,101382.00
2022-08-27T01:58:33.953Z,101384.00
2022-08-27T02:01:11.883Z,101386.00
2022-08-27T02:03:45.336Z,101379.00
2022-08-27T02:06:22.961Z,101381.00
2022-08-27T02:08:55.872Z,101372.00
2022-08-27T02:11:29.186Z,101378.00
2022-08-27T02:14:02.738Z,101371.00
2022-08-27T02:16:36.811Z,101370.00
2022-08-27T02:19:10.912Z,101381.00
2022-08-27T02:21:44.915Z,101386.00
2022-08-27T02:24:17.828Z,101385.00
2022-08-27T02:26:51.028Z,101372.00
2022-08-27T02:29:23.978Z,101369.00
2022-08-27T02:31:59.061Z,101374.00
2022-08-27T02:34:32.245Z,101379.00
2022-08-27T02:37:05.314Z,101364.00
2022-08-27T02:39:38.178Z,101381.00
2022-08-27T02:42:12.549Z,101369.00
2022-08-27T02:44:45.625Z,101365.00
2022-08-27T02:47:18.749Z,101371.00
2022-08-27T02:49:51.783Z,101368.00
2022-08-27T02:52:25.272Z,101357.00
2022-08-27T02:54:58.939Z,101371.00
2022-08-27T02:57:36.608Z,101370.00
2022-08-27T03:00:08.736Z,101367.00
2022-08-27T03:02:41.910Z,101373.00
2022-08-27T03:05:16.355Z,101371.00
2022-08-27T03:07:49.896Z,101370.00
2022-08-27T03:10:24.126Z,101377.00
2022-08-27T03:12:56.888Z,101374.00
2022-08-27T03:15:29.814Z,101367.00
2022-08-27T03:18:21.621Z,101383.00
2022-08-27T03:20:59.439Z,101385.00
2022-08-27T03:23:34.945Z,101385.00
2022-08-27T03:26:10.569Z,101382.00
2022-08-27T03:28:43.496Z,101386.00
2022-08-27T03:31:22.213Z,101382.00
2022-08-27T03:33:55.284Z,101388.00
2022-08-27T03:36:29.138Z,101380.00
2022-08-27T03:39:02.199Z,101382.00
2022-08-27T03:41:54.871Z,101379.00
2022-08-27T03:44:09.512Z,101381.00
2022-08-27T03:46:42.465Z,101379.00
2022-08-27T03:49:15.462Z,101389.00
2022-08-27T03:51:49.578Z,101390.00
2022-08-27T03:54:27.186Z,101386.00
2022-08-27T03:57:00.079Z,101394.00
2022-08-27T03:59:32.856Z,101400.00
2022-08-27T04:02:06.548Z,101405.00
2022-08-27T04:04:39.476Z,101403.00
2022-08-27T04:07:12.402Z,101413.00
2022-08-27T04:09:45.428Z,101406.00
2022-08-27T04:12:19.026Z,101398.00
2022-08-27T04:14:51.712Z,101403.00
2022-08-27T04:17:24.592Z,101405.00
2022-08-27T04:20:18.801Z,101412.00
2022-08-27T04:22:35.777Z,101407.00
2022-08-27T04:25:10.466Z,101415.00
2022-08-27T04:27:43.236Z,101420.00
2022-08-27T04:30:17.596Z,101421.00
2022-08-27T04:32:50.418Z,101428.00
2022-08-27T04:35:23.252Z,101424.00
2022-08-27T04:37:56.258Z,101433.00
2022-08-27T04:40:29.950Z,101430.00
2022-08-27T04:43:02.747Z,101433.00
2022-08-27T04:45:35.500Z,101438.00
2022-08-27T04:48:08.643Z,101441.00
2022-08-27T04:50:49.367Z,101433.00
2022-08-27T04:53:22.585Z,101439.00
2022-08-27T04:55:57.696Z,101442.00
2022-08-27T04:58:30.662Z,101441.00
2022-08-27T05:01:03.543Z,101455.00
2022-08-27T05:03:36.321Z,101443.00
2022-08-27T05:06:10.404Z,101452.00
2022-08-27T05:08:44.056Z,101447.00
2022-08-27T05:11:22.795Z,101446.00
2022-08-27T05:14:00.486Z,101446.00
2022-08-27T05:16:33.417Z,101447.00
2022-08-27T05:19:07.364Z,101452.00
2022-08-27T05:21:42.008Z,101448.00
2022-08-27T05:24:14.826Z,101459.00
2022-08-27T05:26:48.055Z,101458.00
2022-08-27T05:29:20.930Z,101451.00
2022-08-27T05:31:53.897Z,101455.00
2022-08-27T05:34:30.429Z,101461.00
2022-08-27T05:37:03.215Z,101454.00
2022-08-27T05:39:36.058Z,101469.00
2022-08-27T05:42:09.120Z,101476.00
2022-08-27T05:44:45.858Z,101468.00
2022-08-27T05:47:18.496Z,101477.00
2022-08-27T05:49:51.496Z,101476.00
2022-08-27T05:52:27.742Z,101478.00
2022-08-27T05:55:00.498Z,101486.00
2022-08-27T05:57:33.320Z,101493.00
2022-08-27T06:00:24.967Z,101492.00
2022-08-27T06:02:58.258Z,101505.00
2022-08-27T06:05:31.293Z,101506.00
2022-08-27T06:08:04.397Z,101510.00
2022-08-27T06:10:38.250Z,101513.00
2022-08-27T06:13:12.497Z,101517.00
2022-08-27T06:15:45.149Z,101514.00
2022-08-27T06:18:18.458Z,101515.00
2022-08-27T06:20:51.313Z,101515.00
2022-08-27T06:23:27.937Z,101512.00
2022-08-27T06:25:58.674Z,101525.00
2022-08-27T06:28:33.214Z,101522.00
2022-08-27T06:31:17.439Z,101517.00
2022-08-27T06:33:54.987Z,101521.00
2022-08-27T06:36:29.246Z,101526.00
2022-08-27T06:39:02.719Z,101524.00
2022-08-27T06:41:36.241Z,101525.00
2022-08-27T06:44:09.093Z,101533.00
2022-08-27T06:46:42.510Z,101536.00
2022-08-27T06:49:16.603Z,101536.00
2022-08-27T06:51:50.641Z,101547.00
2022-08-27T06:54:23.623Z,101554.00
2022-08-27T06:56:56.434Z,101549.00
2022-08-27T06:59:29.620Z,101549.00
2022-08-27T07:02:02.418Z,101556.00
2022-08-27T07:04:35.570Z,101561.00
2022-08-27T07:07:10.003Z,101564.00
2022-08-27T07:09:43.043Z,101563.00
2022-08-27T07:12:17.045Z,101570.00
2022-08-27T07:14:50.478Z,101578.00
2022-08-27T07:17:23.401Z,101573.00
2022-08-27T07:19:56.419Z,101580.00
2022-08-27T07:22:29.189Z,101574.00
2022-08-27T07:25:02.091Z,101580.00
2022-08-27T07:27:35.002Z,101581.00
2022-08-27T07:30:09.447Z,101587.00
2022-08-27T07:32:44.847Z,101589.00
2022-08-27T07:35:20.612Z,101597.00
2022-08-27T07:37:57.067Z,101596.00
2022-08-27T07:40:38.408Z,101599.00
2022-08-27T07:43:32.306Z,101607.00
2022-08-27T07:46:09.961Z,101609.00
2022-08-27T07:48:43.570Z,101608.00
2022-08-27T07:51:21.149Z,101617.00
2022-08-27T07:53:54.368Z,101617.00
2022-08-27T07:56:27.940Z,101618.00
2022-08-27T07:59:01.139Z,101622.00
2022-08-27T08:01:34.809Z,101626.00
2022-08-27T08:04:08.096Z,101626.00
2022-08-27T08:06:43.047Z,101629.00
2022-08-27T08:09:16.329Z,101627.00
2022-08-27T08:11:49.374Z,101633.00
2022-08-27T08:14:23.384Z,101628.00
2022-08-27T08:16:56.768Z,101635.00
2022-08-27T08:19:29.841Z,101644.00
2022-08-27T08:22:05.952Z,101645.00
2022-08-27T08:24:38.757Z,101641.00
2022-08-27T08:27:13.150Z,101651.00
2022-08-27T08:29:46.002Z,101654.00
2022-08-27T08:32:19.361Z,101653.00
2022-08-27T08:34:52.821Z,101651.00
2022-08-27T08:37:25.966Z,101662.00
2022-08-27T08:39:58.892Z,101661.00
2022-08-27T08:42:42.464Z,101675.00
2022-08-27T08:45:20.936Z,101659.00
2022-08-27T08:47:59.130Z,101660.00
2022-08-27T08:50:33.992Z,101666.00
2022-08-27T08:53:11.529Z,101673.00
2022-08-27T08:55:52.567Z,101666.00
2022-08-27T08:58:41.233Z,101679.00
2022-08-27T09:01:16.583Z,101671.00
2022-08-27T09:03:51.436Z,101679.00
2022-08-27T09:06:26.069Z,101675.00
2022-08-27T09:09:03.231Z,101679.00
2022-08-27T09:11:40.833Z,101677.00
2022-08-27T09:14:25.046Z,101687.00
2022-08-27T09:16:58.534Z,101682.00
2022-08-27T09:19:32.146Z,101679.00
2022-08-27T09:22:16.266Z,101685.00
2022-08-27T09:25:06.128Z,101684.00
2022-08-27T09:27:40.970Z,101689.00
2022-08-27T09:30:16.500Z,101691.00
2022-08-27T09:32:51.269Z,101689.00
2022-08-27T09:35:25.761Z,101694.00
2022-08-27T09:38:00.616Z,101699.00
2022-08-27T09:40:35.346Z,101698.00
2022-08-27T09:43:13.348Z,101699.00
2022-08-27T09:45:57.255Z,101703.00
2022-08-27T09:48:38.208Z,101711.00
2022-08-27T09:51:19.253Z,101711.00
2022-08-27T09:54:01.445Z,101708.00
2022-08-27T09:56:35.900Z,101716.00
2022-08-27T09:59:11.252Z,101709.00
2022-08-27T10:01:58.124Z,101721.00
2022-08-27T10:04:50.657Z,101717.00
2022-08-27T10:07:39.027Z,101710.00
2022-08-27T10:10:16.719Z,101706.00
2022-08-27T10:13:00.563Z,101716.00
2022-08-27T10:15:41.905Z,101715.00
2022-08-27T10:18:28.398Z,101726.00
2022-08-27T10:21:17.538Z,101727.00
2022-08-27T10:24:11.052Z,101732.00
2022-08-27T10:26:57.686Z,101723.00
2022-08-27T10:29:41.713Z,101727.00
2022-08-27T10:32:17.290Z,101737.00
2022-08-27T10:35:19.617Z,101734.00
2022-08-27T10:38:18.347Z,101736.00
2022-08-27T10:40:56.404Z,101726.00
2022-08-27T10:43:51.929Z,101730.00
2022-08-27T10:46:35.665Z,101741.00
2022-08-27T10:49:35.810Z,101739.00
2022-08-27T10:52:38.565Z,101746.00
2022-08-27T10:55:19.640Z,101746.00
2022-08-27T10:58:01.052Z,101746.00
2022-08-27T11:00:36.730Z,101747.00
2022-08-27T11:03:23.368Z,101750.00
2022-08-27T11:05:57.282Z,101752.00
2022-08-27T11:08:32.618Z,101764.00
2022-08-27T11:11:56.920Z,101766.00
2022-08-27T11:13:53.791Z,101756.00
2022-08-27T11:16:33.365Z,101755.00
2022-08-27T11:19:08.473Z,101753.00
2022-08-27T11:21:47.277Z,101758.00
2022-08-27T11:24:37.036Z,101767.00
2022-08-27T11:27:11.636Z,101762.00
2022-08-27T11:30:02.941Z,101758.00
2022-08-27T11:32:52.742Z,101753.00
2022-08-27T11:35:36.268Z,101767.00
2022-08-27T11:38:14.505Z,101761.00
2022-08-27T11:40:59.438Z,101761.00
2022-08-27T11:43:34.381Z,101763.00
2022-08-27T11:46:09.413Z,101766.00
2022-08-27T11:48:50.713Z,101764.00
2022-08-27T11:51:42.707Z,101766.00
2022-08-27T11:54:17.910Z,101774.00
2022-08-27T11:56:50.787Z,101769.00
2022-08-27T11:59:28.681Z,101769.00
2022-08-27T12:02:03.801Z,101782.00
2022-08-27T12:04:38.937Z,101785.00
2022-08-27T12:07:24.216Z,101778.00
2022-08-27T12:10:02.348Z,101778.00
2022-08-27T12:13:04.898Z,101783.00
2022-08-27T12:15:58.721Z,101784.00
2022-08-27T12:18:46.504Z,101787.00
2022-08-27T12:21:38.021Z,101785.00
2022-08-27T12:24:28.086Z,101791.00
2022-08-27T12:27:03.478Z,101791.00
2022-08-27T12:29:47.372Z,101783.00
2022-08-27T12:32:37.233Z,101796.00
2022-08-27T12:35:16.056Z,101794.00
2022-08-27T12:37:51.114Z,101799.00
2022-08-27T12:40:32.635Z,101793.00
2022-08-27T12:43:19.037Z,101803.00
2022-08-27T12:45:54.463Z,101805.00
2022-08-27T12:48:29.429Z,101807.00
2022-08-27T12:51:07.760Z,101819.00
2022-08-27T12:53:54.729Z,101819.00
2022-08-27T12:56:44.759Z,101820.00
2022-08-27T12:59:29.897Z,101822.00
2022-08-27T13:02:19.708Z,101822.00
2022-08-27T13:04:53.671Z,101827.00
2022-08-27T13:07:37.845Z,101821.00
2022-08-27T13:10:17.387Z,101823.00
2022-08-27T13:12:51.505Z,101828.00
2022-08-27T13:15:24.911Z,101833.00
2022-08-27T13:17:58.762Z,101825.00
2022-08-27T13:20:33.104Z,101829.00
2022-08-27T13:23:06.263Z,101827.00
2022-08-27T13:25:39.694Z,101831.00
2022-08-27T13:28:17.488Z,101834.00
2022-08-27T13:30:52.088Z,101837.00
2022-08-27T13:33:30.535Z,101827.00
2022-08-27T13:36:04.803Z,101837.00
2022-08-27T13:38:39.816Z,101845.00
2022-08-27T13:41:15.012Z,101851.00
2022-08-27T13:43:49.266Z,101829.00
2022-08-27T13:46:24.306Z,101836.00
2022-08-27T13:48:59.421Z,101838.00
2022-08-27T13:51:37.302Z,101842.00
2022-08-27T13:54:18.966Z,101843.00
2022-08-27T13:56:59.847Z,101841.00
2022-08-27T13:59:39.007Z,101831.00
2022-08-27T14:02:15.134Z,101842.00
2022-08-27T14:04:55.930Z,101841.00
2022-08-27T14:07:31.311Z,101845.00
2022-08-27T14:10:35.399Z,101846.00
2022-08-27T14:13:22.964Z,101842.00
2022-08-27T14:15:58.707Z,101837.00
2022-08-27T14:18:57.853Z,101841.00
2022-08-27T14:21:11.218Z,101834.00
2022-08-27T14:23:44.821Z,101834.00
2022-08-27T14:26:19.472Z,101833.00
2022-08-27T14:28:52.928Z,101838.00
2022-08-27T14:31:26.614Z,101842.00
2022-08-27T14:34:00.204Z,101843.00
2022-08-27T14:36:34.980Z,101838.00
2022-08-27T14:39:09.349Z,101839.00
2022-08-27T14:41:43.020Z,101837.00
2022-08-27T14:44:17.443Z,101828.00
2022-08-27T14:46:50.371Z,101828.00
2022-08-27T14:49:25.415Z,101826.00
2022-08-27T14:51:58.819Z,101828.00
2022-08-27T14:54:33.585Z,101827.00
2022-08-27T14:57:06.890Z,101827.00
2022-08-27T14:59:40.954Z,101834.00
2022-08-27T15:02:16.143Z,101835.00
2022-08-27T15:04:49.079Z,101832.00
2022-08-27T15:07:22.805Z,101838.00
2022-08-27T15:09:57.444Z,101830.00
2022-08-27T15:12:30.320Z,101833.00
2022-08-27T15:15:03.620Z,101843.00
2022-08-27T15:17:36.691Z,101840.00
2022-08-27T15:20:20.041Z,101844.00
2022-08-27T15:22:49.822Z,101833.00
2022-08-27T15:25:23.851Z,101840.00
2022-08-27T15:27:56.704Z,101839.00
2022-08-27T15:30:31.967Z,101844.00
2022-08-27T15:33:05.688Z,101837.00
2022-08-27T15:35:38.944Z,101830.00
2022-08-27T15:38:11.751Z,101844.00
2022-08-27T15:40:44.575Z,101843.00
2022-08-27T15:43:17.997Z,101843.00
2022-08-27T15:45:51.084Z,101845.00
2022-08-27T15:48:23.903Z,101845.00
2022-08-27T15:51:01.464Z,101846.00
2022-08-27T15:53:34.471Z,101840.00
2022-08-27T15:56:09.496Z,101833.00
2022-08-27T15:58:45.377Z,101839.00
2022-08-27T16:01:20.102Z,101847.00
2022-08-27T16:03:53.215Z,101850.00
2022-08-27T16:06:30.425Z,101848.00
2022-08-27T16:09:03.446Z,101854.00
2022-08-27T16:11:36.457Z,101858.00
2022-08-27T16:14:11.771Z,101858.00
2022-08-27T16:16:44.664Z,101869.00
2022-08-27T16:19:18.096Z,101864.00
2022-08-27T16:21:52.874Z,101871.00
2022-08-27T16:24:28.917Z,101873.00
2022-08-27T16:27:02.373Z,101871.00
2022-08-27T16:29:35.102Z,101873.00
2022-08-27T16:32:08.182Z,101886.00
2022-08-27T16:34:41.013Z,101876.00
2022-08-27T16:37:13.964Z,101882.00
2022-08-27T16:39:47.534Z,101882.00
2022-08-27T16:42:20.201Z,101888.00
2022-08-27T16:44:53.025Z,101879.00
2022-08-27T16:47:28.156Z,101878.00
2022-08-27T16:50:25.605Z,101879.00
2022-08-27T16:52:55.354Z,101886.00
2022-08-27T16:55:32.193Z,101877.00
2022-08-27T16:58:05.071Z,101885.00
2022-08-27T17:00:41.571Z,101890.00
2022-08-27T17:03:14.390Z,101892.00
2022-08-27T17:05:47.283Z,101900.00
2022-08-27T17:08:26.756Z,101896.00
2022-08-27T17:11:00.220Z,101900.00
2022-08-27T17:13:37.321Z,101897.00
2022-08-27T17:16:11.285Z,101910.00
2022-08-27T17:18:44.806Z,101913.00
2022-08-27T17:21:19.289Z,101912.00
2022-08-27T17:23:54.477Z,101913.00
2022-08-27T17:26:28.966Z,101926.00
2022-08-27T17:29:01.549Z,101930.00
2022-08-27T17:31:36.491Z,101929.00
2022-08-27T17:34:10.502Z,101931.00
2022-08-27T17:36:47.498Z,101930.00
2022-08-27T17:39:20.947Z,101942.00
2022-08-27T17:41:55.632Z,101943.00
2022-08-27T17:44:30.223Z,101938.00
2022-08-27T17:47:06.867Z,101942.00
2022-08-27T17:49:40.082Z,101939.00
2022-08-27T17:52:14.935Z,101945.00
2022-08-27T17:54:50.058Z,101951.00
2022-08-27T17:57:28.359Z,101957.00
2022-08-27T18:00:04.864Z,101962.00
2022-08-27T18:02:40.456Z,101970.00
2022-08-27T18:05:15.731Z,101976.00
2022-08-27T18:07:49.421Z,101976.00
2022-08-27T18:10:25.255Z,101979.00
2022-08-27T18:12:58.797Z,101981.00
2022-08-27T18:15:33.645Z,101977.00
2022-08-27T18:18:06.964Z,101986.00
2022-08-27T18:20:42.514Z,101988.00
2022-08-27T18:23:16.804Z,101992.00
2022-08-27T18:25:50.302Z,101996.00
2022-08-27T18:28:28.362Z,101998.00
2022-08-27T18:31:03.639Z,102005.00
2022-08-27T18:33:36.046Z,102006.00
2022-08-27T18:36:09.139Z,102011.00
2022-08-27T18:38:42.218Z,102011.00
2022-08-27T18:41:15.091Z,102011.00
2022-08-27T18:43:48.080Z,102014.00
2022-08-27T18:46:21.637Z,102026.00
2022-08-27T18:48:54.915Z,102025.00
2022-08-27T18:51:27.967Z,102020.00
2022-08-27T18:54:06.294Z,102031.00
2022-08-27T18:56:39.153Z,102035.00
2022-08-27T18:59:16.810Z,102034.00
2022-08-27T19:01:50.211Z,102040.00
2022-08-27T19:04:23.451Z,102045.00
2022-08-27T19:06:56.587Z,102055.00
2022-08-27T19:09:30.223Z,102056.00
2022-08-27T19:12:03.175Z,102061.00
2022-08-27T19:14:35.983Z,102076.00
2022-08-27T19:17:09.510Z,102069.00
2022-08-27T19:19:42.461Z,102077.00
2022-08-27T19:22:15.382Z,102079.00
2022-08-27T19:24:50.302Z,102085.00
2022-08-27T19:27:25.237Z,102092.00
2022-08-27T19:29:58.545Z,102096.00
2022-08-27T19:32:32.025Z,102097.00
2022-08-27T19:35:04.944Z,102089.00
2022-08-27T19:37:39.837Z,102103.00
2022-08-27T19:40:18.965Z,102100.00
2022-08-27T19:42:52.765Z,102110.00
2022-08-27T19:45:26.008Z,102113.00
2022-08-27T19:47:58.953Z,102115.00
2022-08-27T19:50:36.100Z,102125.00
2022-08-27T19:53:09.129Z,102114.00
2022-08-27T19:55:43.173Z,102132.00
2022-08-27T19:58:18.022Z,102142.00
2022-08-27T20:00:51.514Z,102140.00
2022-08-27T20:03:24.569Z,102143.00
2022-08-27T20:05:57.666Z,102149.00
2022-08-27T20:08:30.544Z,102146.00
2022-08-27T20:11:07.732Z,102151.00
2022-08-27T20:13:50.263Z,102158.00
2022-08-27T20:16:14.969Z,102169.00
2022-08-27T20:18:48.411Z,102170.00
2022-08-27T20:21:21.334Z,102171.00
2022-08-27T20:23:54.625Z,102171.00
2022-08-27T20:26:28.464Z,102175.00
2022-08-27T20:29:06.152Z,102176.00
2022-08-27T20:31:39.516Z,102179.00
2022-08-27T20:34:12.303Z,102181.00
2022-08-27T20:36:46.080Z,102183.00
2022-08-27T20:39:19.411Z,102184.00
2022-08-27T20:41:53.534Z,102180.00
2022-08-27T20:44:26.684Z,102186.00
2022-08-27T20:47:01.211Z,102187.00
2022-08-27T20:49:34.115Z,102194.00
2022-08-27T20:52:11.462Z,102196.00
2022-08-27T20:54:42.435Z,102204.00
2022-08-27T20:57:15.277Z,102203.00
2022-08-27T21:00:05.711Z,102209.00
2022-08-27T21:02:38.650Z,102207.00
2022-08-27T21:05:14.164Z,102225.00
2022-08-27T21:07:48.344Z,102221.00
2022-08-27T21:10:21.453Z,102220.00
2022-08-27T21:12:54.316Z,102218.00
2022-08-27T21:15:27.211Z,102217.00
2022-08-27T21:18:02.294Z,102216.00
2022-08-27T21:20:34.950Z,102227.00
2022-08-27T21:23:08.039Z,102233.00
2022-08-27T21:25:42.264Z,102243.00
2022-08-27T21:28:15.489Z,102240.00
2022-08-27T21:30:47.975Z,102237.00
2022-08-27T21:33:20.758Z,102248.00
2022-08-27T21:35:53.658Z,102257.00
2022-08-27T21:38:26.584Z,102261.00
2022-08-27T21:40:59.587Z,102262.00
2022-08-27T21:43:32.454Z,102258.00
2022-08-27T21:46:09.328Z,102264.00
2022-08-27T21:48:59.059Z,102267.00
2022-08-27T21:51:24.643Z,102267.00
2022-08-27T21:53:56.790Z,102271.00
2022-08-27T21:56:29.920Z,102269.00
2022-08-27T21:59:02.851Z,102277.00
2022-08-27T22:01:35.923Z,102278.00
2022-08-27T22:04:09.025Z,102273.00
2022-08-27T22:06:44.725Z,102283.00
2022-08-27T22:09:17.694Z,102282.00
2022-08-27T22:11:50.655Z,102288.00
2022-08-27T22:14:23.548Z,102281.00
2022-08-27T22:16:56.413Z,102287.00
2022-08-27T22:19:29.339Z,102291.00
2022-08-27T22:22:02.147Z,102295.00
2022-08-27T22:24:34.828Z,102294.00
2022-08-27T22:27:07.592Z,102293.00
2022-08-27T22:29:40.873Z,102299.00
2022-08-27T22:32:13.742Z,102303.00
2022-08-27T22:34:46.561Z,102300.00
2022-08-27T22:37:23.297Z,102309.00
2022-08-27T22:39:56.370Z,102301.00
2022-08-27T22:42:34.590Z,102317.00
2022-08-27T22:45:09.347Z,102320.00
2022-08-27T22:47:46.511Z,102315.00
2022-08-27T22:50:20.119Z,102318.00
2022-08-27T22:52:57.393Z,102321.00
2022-08-27T22:55:30.291Z,102324.00
2022-08-27T22:58:03.851Z,102325.00
2022-08-27T23:00:38.548Z,102317.00
2022-08-27T23:03:13.223Z,102323.00
2022-08-27T23:05:46.192Z,102327.00
2022-08-27T23:08:19.570Z,102323.00
2022-08-27T23:10:57.722Z,102332.00
2022-08-27T23:13:31.562Z,102330.00
2022-08-27T23:16:08.501Z,102329.00
2022-08-27T23:18:42.529Z,102326.00
2022-08-27T23:21:15.390Z,102336.00
2022-08-27T23:23:48.305Z,102332.00
2022-08-27T23:26:42.606Z,102316.00
2022-08-27T23:29:19.894Z,102332.00
2022-08-27T23:31:53.802Z,102330.00
2022-08-27T23:34:26.933Z,102327.00
2022-08-27T23:37:04.137Z,102327.00
2022-08-27T23:39:37.223Z,102331.00
2022-08-27T23:42:10.362Z,102328.00
2022-08-27T23:44:45.244Z,102332.00
2022-08-27T23:47:18.119Z,102328.00
2022-08-27T23:49:50.881Z,102329.00
2022-08-27T23:52:23.564Z,102323.00
2022-08-27T23:54:56.425Z,102326.00
2022-08-27T23:57:29.454Z,102323.00
